| time (UTC) | temp C | wind direction | speed KPH | gust KPH | rain 1hr cm | rain 24hr cm | rain mn cm | humidity % | barometer mb |
| 20260510164556 | 27 | 304 | 3.2 | 4.8 | 0.00 | 0.00 | 0.00 | 48 | 1014.2 |
| 20260510164052 | 26 | 304 | 1.6 | 1.6 | 0.00 | 0.00 | 0.00 | 49 | 1014.1 |
| 20260510163548 | 26 | 304 | 6.4 | 9.7 | 0.00 | 0.00 | 0.00 | 49 | 1014.3 |
| 20260510163045 | 26 | 304 | 8.0 | 9.7 | 0.00 | 0.00 | 0.00 | 50 | 1014.1 |
| 20260510162539 | 26 | 305 | 0.0 | 0.0 | 0.00 | 0.00 | 0.00 | 50 | 1014.2 |
| 20260510162036 | 26 | 305 | 4.8 | 4.8 | 0.00 | 0.00 | 0.00 | 50 | 1014.2 |
| 20260510161532 | 25 | 304 | 0.0 | 0.0 | 0.00 | 0.00 | 0.00 | 50 | 1014.2 |
| 20260510161029 | 26 | 304 | 4.8 | 8.0 | 0.00 | 0.00 | 0.00 | 52 | 1014.4 |
| 20260510160526 | 26 | 305 | 3.2 | 3.2 | 0.00 | 0.00 | 0.00 | 50 | 1014.4 |
| 20260510160025 | 25 | 304 | 6.4 | 8.0 | 0.00 | 0.00 | 0.00 | 52 | 1014.3 |
| 20260510155522 | 25 | 304 | 3.2 | 4.8 | 0.00 | 0.00 | 0.00 | 52 | 1014.3 |
| 20260510155019 | 25 | 304 | 6.4 | 8.0 | 0.00 | 0.00 | 0.00 | 53 | 1014.2 |
| 20260510154515 | 25 | 304 | 6.4 | 8.0 | 0.00 | 0.00 | 0.00 | 53 | 1014.4 |
| 20260510154014 | 25 | 305 | 1.6 | 1.6 | 0.00 | 0.00 | 0.00 | 53 | 1014.4 |
| 20260510153504 | 25 | 304 | 9.7 | 11.3 | 0.00 | 0.00 | 0.00 | 52 | 1014.4 |
| 20260510153002 | 25 | 306 | 8.0 | 11.3 | 0.00 | 0.00 | 0.00 | 53 | 1014.3 |
| 20260510152459 | 25 | 306 | 4.8 | 8.0 | 0.00 | 0.00 | 0.00 | 53 | 1014.3 |
| 20260510151955 | 25 | 308 | 3.2 | 4.8 | 0.00 | 0.00 | 0.00 | 54 | 1014.3 |
| 20260510151452 | 25 | 308 | 3.2 | 3.2 | 0.00 | 0.00 | 0.00 | 53 | 1014.2 |
| 20260510150948 | 25 | 307 | 0.0 | 1.6 | 0.00 | 0.00 | 0.00 | 52 | 1014.2 |
| 20260510150444 | 24 | 306 | 9.7 | 11.3 | 0.00 | 0.00 | 0.00 | 52 | 1014.2 |
| 20260510145940 | 24 | 309 | 6.4 | 9.7 | 0.00 | 0.00 | 0.00 | 54 | 1014.4 |
| 20260510145437 | 24 | 308 | 1.6 | 1.6 | 0.00 | 0.00 | 0.00 | 56 | 1014.2 |
| 20260510144933 | 23 | 306 | 1.6 | 3.2 | 0.00 | 0.00 | 0.00 | 53 | 1014.0 |
| 20260510144430 | 23 | 304 | 3.2 | 3.2 | 0.00 | 0.00 | 0.00 | 57 | 1013.9 |
| 20260510143925 | 23 | 304 | 4.8 | 4.8 | 0.00 | 0.00 | 0.00 | 57 | 1013.7 |
| 20260510143421 | 24 | 308 | 0.0 | 1.6 | 0.00 | 0.00 | 0.00 | 57 | 1013.8 |
| 20260510142918 | 23 | 310 | 0.0 | 0.0 | 0.00 | 0.00 | 0.00 | 59 | 1013.7 |
| 20260510142415 | 23 | 310 | 0.0 | 1.6 | 0.00 | 0.00 | 0.00 | 60 | 1013.7 |
| 20260510141911 | 22 | 310 | 1.6 | 1.6 | 0.00 | 0.00 | 0.00 | 60 | 1013.8 |
| 20260510141409 | 22 | 310 | 0.0 | 1.6 | 0.00 | 0.00 | 0.00 | 62 | 1013.7 |
| 20260510140906 | 22 | 311 | 1.6 | 1.6 | 0.00 | 0.00 | 0.00 | 62 | 1013.8 |
| 20260510140401 | 23 | 313 | 0.0 | 0.0 | 0.00 | 0.00 | 0.00 | 64 | 1013.9 |
| 20260510135855 | 22 | 310 | 0.0 | 0.0 | 0.00 | 0.00 | 0.00 | 67 | 1013.7 |
| 20260510135351 | 21 | 310 | 0.0 | 1.6 | 0.00 | 0.00 | 0.00 | 70 | 1013.8 |
| 20260510134849 | 22 | 309 | 1.6 | 1.6 | 0.00 | 0.00 | 0.00 | 70 | 1013.8 |
| 20260510134345 | 21 | 307 | 1.6 | 3.2 | 0.00 | 0.00 | 0.00 | 70 | 1013.9 |
| 20260510133841 | 21 | 306 | 3.2 | 4.8 | 0.00 | 0.00 | 0.00 | 68 | 1013.9 |
| 20260510133338 | 21 | 305 | 0.0 | 0.0 | 0.00 | 0.00 | 0.00 | 70 | 1013.7 |
| 20260510132834 | 21 | 304 | 1.6 | 1.6 | 0.00 | 0.00 | 0.00 | 70 | 1013.9 |
| 20260510132332 | 20 | 304 | 0.0 | 1.6 | 0.00 | 0.00 | 0.00 | 73 | 1014.2 |
| 20260510131828 | 20 | 304 | 0.0 | 0.0 | 0.00 | 0.00 | 0.00 | 73 | 1014.1 |
| 20260510131326 | 19 | 304 | 0.0 | 0.0 | 0.00 | 0.00 | 0.00 | 74 | 1014.3 |
| 20260510130822 | 20 | 304 | 0.0 | 0.0 | 0.00 | 0.00 | 0.00 | 74 | 1014.3 |
| 20260510130320 | 18 | 304 | 0.0 | 0.0 | 0.00 | 0.00 | 0.00 | 76 | 1014.4 |
| 20260510125816 | 18 | 304 | 0.0 | 1.6 | 0.00 | 0.00 | 0.00 | 79 | 1014.5 |
| 20260510125312 | 17 | 304 | 1.6 | 1.6 | 0.00 | 0.00 | 0.00 | 80 | 1014.4 |
| 20260510124809 | 17 | 304 | 0.0 | 0.0 | 0.00 | 0.00 | 0.00 | 81 | 1014.3 |
| 20260510124306 | 17 | 304 | 0.0 | 1.6 | 0.00 | 0.00 | 0.00 | 82 | 1014.4 |
| 20260510123802 | 17 | 304 | 1.6 | 1.6 | 0.00 | 0.00 | 0.00 | 82 | 1014.3 |
| 20260510123257 | 16 | 304 | 0.0 | 0.0 | 0.00 | 0.00 | 0.00 | 84 | 1014.2 |
| 20260510122754 | 16 | 304 | 0.0 | 1.6 | 0.00 | 0.00 | 0.00 | 84 | 1014.3 |
| 20260510122250 | 16 | 304 | 0.0 | 0.0 | 0.00 | 0.00 | 0.00 | 86 | 1014.3 |
| 20260510121747 | 16 | 304 | 0.0 | 0.0 | 0.00 | 0.00 | 0.00 | 86 | 1014.1 |
| 20260510121244 | 15 | 304 | 0.0 | 0.0 | 0.00 | 0.00 | 0.00 | 88 | 1014.1 |
| 20260510120741 | 15 | 304 | 0.0 | 0.0 | 0.00 | 0.00 | 0.00 | 89 | 1013.9 |
| 20260510120238 | 14 | 304 | 0.0 | 1.6 | 0.00 | 0.00 | 0.00 | 92 | 1013.9 |
| 20260510115734 | 13 | 304 | 0.0 | 0.0 | 0.00 | 0.00 | 0.00 | 96 | 1014.0 |
| 20260510115232 | 13 | 304 | 0.0 | 0.0 | 0.00 | 0.00 | 0.00 | 99 | 1014.1 |
| 20260510114727 | 12 | 304 | 0.0 | 0.0 | 0.00 | 0.00 | 0.00 | 99 | 1014.1 |
| 20260510114224 | 12 | 304 | 0.0 | 0.0 | 0.00 | 0.00 | 0.00 | 99 | 1013.8 |
| 20260510113719 | 12 | 304 | 0.0 | 1.6 | 0.00 | 0.00 | 0.00 | 99 | 1013.8 |
| 20260510113217 | 11 | 304 | 0.0 | 0.0 | 0.00 | 0.00 | 0.00 | 99 | 1013.7 |
| 20260510112712 | 11 | 304 | 0.0 | 0.0 | 0.00 | 0.00 | 0.00 | 99 | 1013.8 |
| 20260510112210 | 11 | 305 | 0.0 | 0.0 | 0.00 | 0.00 | 0.00 | 99 | 1013.5 |
| 20260510111706 | 10 | 305 | 0.0 | 0.0 | 0.00 | 0.00 | 0.00 | 99 | 1013.5 |
| 20260510111203 | 10 | 306 | 0.0 | 0.0 | 0.00 | 0.00 | 0.00 | 99 | 1013.4 |
| 20260510110702 | 10 | 307 | 0.0 | 0.0 | 0.00 | 0.00 | 0.00 | 99 | 1013.0 |
| 20260510110201 | 9 | 308 | 0.0 | 0.0 | 0.00 | 0.00 | 0.00 | 99 | 1012.9 |
| 20260510105655 | 9 | 308 | 0.0 | 0.0 | 0.00 | 0.00 | 0.00 | 99 | 1013.0 |
| 20260510105150 | 9 | 308 | 0.0 | 0.0 | 0.00 | 0.00 | 0.00 | 99 | 1012.6 |
| 20260510104647 | 8 | 308 | 0.0 | 0.0 | 0.00 | 0.00 | 0.00 | 99 | 1012.6 |
| 20260510104143 | 8 | 308 | 0.0 | 0.0 | 0.00 | 0.00 | 0.00 | 99 | 1012.8 |
| 20260510103635 | 8 | 309 | 0.0 | 0.0 | 0.00 | 0.00 | 0.00 | 99 | 1012.7 |
| 20260510103131 | 8 | 309 | 0.0 | 0.0 | 0.00 | 0.00 | 0.00 | 99 | 1012.8 |
| 20260510102626 | 8 | 309 | 0.0 | 0.0 | 0.00 | 0.00 | 0.00 | 99 | 1012.7 |
| 20260510102122 | 8 | 310 | 0.0 | 0.0 | 0.00 | 0.00 | 0.00 | 99 | 1012.6 |
| 20260510101620 | 8 | 313 | 0.0 | 0.0 | 0.00 | 0.00 | 0.00 | 99 | 1012.5 |
| 20260510101118 | 8 | 316 | 0.0 | 0.0 | 0.00 | 0.00 | 0.00 | 99 | 1012.5 |
| 20260510100614 | 8 | 317 | 0.0 | 0.0 | 0.00 | 0.00 | 0.00 | 99 | 1012.5 |
| 20260510100112 | 8 | 320 | 0.0 | 0.0 | 0.00 | 0.00 | 0.00 | 99 | 1012.6 |
| 20260510095607 | 8 | 321 | 0.0 | 0.0 | 0.00 | 0.00 | 0.00 | 99 | 1012.5 |
| 20260510095102 | 8 | 325 | 0.0 | 0.0 | 0.00 | 0.00 | 0.00 | 99 | 1012.4 |
| 20260510094601 | 8 | 328 | 0.0 | 0.0 | 0.00 | 0.00 | 0.00 | 99 | 1012.5 |
| 20260510094057 | 8 | 333 | 0.0 | 0.0 | 0.00 | 0.00 | 0.00 | 99 | 1012.5 |
| 20260510093553 | 8 | 338 | 0.0 | 0.0 | 0.00 | 0.00 | 0.00 | 99 | 1012.4 |
| 20260510093050 | 8 | 339 | 0.0 | 0.0 | 0.00 | 0.00 | 0.00 | 99 | 1012.3 |
| 20260510092547 | 8 | 339 | 0.0 | 0.0 | 0.00 | 0.00 | 0.00 | 99 | 1012.4 |
| 20260510092046 | 8 | 341 | 0.0 | 0.0 | 0.00 | 0.00 | 0.00 | 99 | 1012.4 |
| 20260510091544 | 9 | 344 | 0.0 | 0.0 | 0.00 | 0.00 | 0.00 | 99 | 1012.6 |
| 20260510091039 | 9 | 346 | 0.0 | 0.0 | 0.00 | 0.00 | 0.00 | 99 | 1012.2 |
| 20260510090537 | 10 | 350 | 0.0 | 0.0 | 0.00 | 0.00 | 0.00 | 99 | 1012.3 |
| 20260510090032 | 9 | 352 | 0.0 | 0.0 | 0.00 | 0.00 | 0.00 | 99 | 1012.3 |
| 20260510085527 | 9 | 355 | 0.0 | 0.0 | 0.00 | 0.00 | 0.00 | 99 | 1012.5 |
| 20260510085023 | 9 | 358 | 0.0 | 0.0 | 0.00 | 0.00 | 0.00 | 99 | 1012.0 |
| 20260510084520 | 9 | 0 | 0.0 | 0.0 | 0.00 | 0.00 | 0.00 | 99 | 1012.0 |
| 20260510084017 | 9 | 4 | 0.0 | 0.0 | 0.00 | 0.00 | 0.00 | 99 | 1012.1 |
| 20260510083513 | 9 | 6 | 0.0 | 0.0 | 0.00 | 0.00 | 0.00 | 99 | 1012.1 |
| 20260510083009 | 9 | 9 | 0.0 | 0.0 | 0.00 | 0.00 | 0.00 | 98 | 1012.1 |
| 20260510082507 | 9 | 11 | 0.0 | 0.0 | 0.00 | 0.00 | 0.00 | 98 | 1012.0 |
| 20260510082006 | 9 | 14 | 0.0 | 0.0 | 0.00 | 0.00 | 0.00 | 98 | 1011.8 |
| 20260510081502 | 9 | 16 | 0.0 | 0.0 | 0.00 | 0.00 | 0.00 | 98 | 1011.6 |
| 20260510080958 | 9 | 19 | 0.0 | 0.0 | 0.00 | 0.00 | 0.00 | 98 | 1011.4 |
| 20260510080456 | 9 | 21 | 0.0 | 0.0 | 0.00 | 0.00 | 0.00 | 98 | 1011.5 |
| 20260510075954 | 10 | 24 | 0.0 | 0.0 | 0.00 | 0.00 | 0.00 | 98 | 1011.3 |
| 20260510075452 | 10 | 26 | 0.0 | 0.0 | 0.00 | 0.00 | 0.00 | 98 | 1011.4 |
| 20260510074948 | 10 | 29 | 0.0 | 0.0 | 0.00 | 0.00 | 0.00 | 98 | 1011.2 |
| 20260510074446 | 10 | 31 | 0.0 | 0.0 | 0.00 | 0.00 | 0.00 | 98 | 1011.1 |
| 20260510073942 | 10 | 36 | 0.0 | 0.0 | 0.00 | 0.00 | 0.00 | 98 | 1011.3 |
| 20260510073437 | 10 | 40 | 0.0 | 0.0 | 0.00 | 0.00 | 0.00 | 98 | 1011.4 |
| 20260510072934 | 10 | 43 | 0.0 | 0.0 | 0.00 | 0.00 | 0.00 | 98 | 1011.1 |
| 20260510072431 | 10 | 46 | 0.0 | 0.0 | 0.00 | 0.00 | 0.00 | 98 | 1011.1 |
| 20260510071926 | 10 | 49 | 0.0 | 0.0 | 0.00 | 0.00 | 0.00 | 98 | 1011.1 |
| 20260510071423 | 10 | 54 | 0.0 | 0.0 | 0.00 | 0.00 | 0.00 | 98 | 1011.1 |
| 20260510070921 | 10 | 59 | 0.0 | 0.0 | 0.00 | 0.00 | 0.00 | 98 | 1011.0 |
| 20260510070419 | 10 | 66 | 0.0 | 0.0 | 0.00 | 0.00 | 0.00 | 98 | 1011.0 |
| 20260510065914 | 10 | 69 | 0.0 | 0.0 | 0.00 | 0.00 | 0.00 | 98 | 1011.0 |
| 20260510065410 | 10 | 73 | 0.0 | 0.0 | 0.00 | 0.00 | 0.00 | 98 | 1010.9 |
| 20260510064907 | 10 | 76 | 0.0 | 0.0 | 0.00 | 0.00 | 0.00 | 98 | 1011.1 |
| 20260510064405 | 11 | 80 | 0.0 | 0.0 | 0.00 | 0.00 | 0.00 | 97 | 1011.0 |
| 20260510063901 | 11 | 83 | 0.0 | 0.0 | 0.00 | 0.00 | 0.00 | 98 | 1011.0 |
| 20260510063357 | 11 | 88 | 0.0 | 0.0 | 0.00 | 0.00 | 0.00 | 98 | 1011.0 |
| 20260510062854 | 11 | 92 | 0.0 | 0.0 | 0.00 | 0.00 | 0.00 | 97 | 1011.0 |
| 20260510062349 | 11 | 95 | 0.0 | 0.0 | 0.00 | 0.00 | 0.00 | 97 | 1011.0 |
| 20260510061845 | 11 | 98 | 0.0 | 0.0 | 0.00 | 0.00 | 0.00 | 97 | 1010.9 |
| 20260510061342 | 11 | 101 | 0.0 | 0.0 | 0.00 | 0.00 | 0.00 | 97 | 1011.1 |
| 20260510060838 | 11 | 103 | 0.0 | 0.0 | 0.00 | 0.00 | 0.00 | 97 | 1010.9 |
| 20260510060335 | 11 | 105 | 0.0 | 0.0 | 0.00 | 0.00 | 0.00 | 97 | 1010.9 |
| 20260510055832 | 11 | 108 | 0.0 | 0.0 | 0.00 | 0.00 | 0.00 | 96 | 1010.9 |
| 20260510055331 | 11 | 109 | 0.0 | 0.0 | 0.00 | 0.00 | 0.00 | 96 | 1010.9 |
| 20260510054831 | 11 | 111 | 0.0 | 0.0 | 0.00 | 0.00 | 0.00 | 96 | 1010.8 |
| 20260510054326 | 11 | 113 | 0.0 | 0.0 | 0.00 | 0.00 | 0.00 | 96 | 1010.9 |
| 20260510053821 | 11 | 115 | 0.0 | 0.0 | 0.00 | 0.00 | 0.00 | 96 | 1011.2 |
| 20260510053317 | 11 | 118 | 0.0 | 0.0 | 0.00 | 0.00 | 0.00 | 96 | 1010.8 |
| 20260510052814 | 11 | 118 | 0.0 | 0.0 | 0.00 | 0.00 | 0.00 | 96 | 1011.0 |
| 20260510052310 | 12 | 120 | 0.0 | 0.0 | 0.00 | 0.00 | 0.00 | 96 | 1010.9 |
| 20260510051806 | 12 | 122 | 0.0 | 0.0 | 0.00 | 0.00 | 0.00 | 95 | 1011.0 |
| 20260510051302 | 12 | 123 | 0.0 | 0.0 | 0.00 | 0.00 | 0.00 | 95 | 1010.9 |
| 20260510050759 | 12 | 123 | 0.0 | 0.0 | 0.00 | 0.00 | 0.00 | 95 | 1011.2 |
| 20260510050251 | 12 | 124 | 0.0 | 0.0 | 0.00 | 0.00 | 0.00 | 95 | 1010.9 |
| 20260510045748 | 12 | 124 | 0.0 | 0.0 | 0.00 | 0.00 | 0.00 | 95 | 1011.3 |
| 20260510045244 | 12 | 124 | 0.0 | 0.0 | 0.00 | 0.00 | 0.00 | 94 | 1011.1 |
| 20260510044741 | 12 | 124 | 0.0 | 0.0 | 0.00 | 0.00 | 0.00 | 94 | 1011.2 |
| 20260510044239 | 12 | 124 | 0.0 | 0.0 | 0.00 | 0.00 | 0.00 | 94 | 1011.1 |
| 20260510043734 | 12 | 124 | 0.0 | 0.0 | 0.00 | 0.00 | 0.00 | 94 | 1011.2 |
| 20260510043231 | 12 | 124 | 0.0 | 0.0 | 0.00 | 0.00 | 0.00 | 93 | 1011.1 |
| 20260510042728 | 12 | 124 | 0.0 | 0.0 | 0.00 | 0.00 | 0.00 | 93 | 1011.2 |
| 20260510042224 | 12 | 124 | 0.0 | 0.0 | 0.00 | 0.00 | 0.00 | 93 | 1011.1 |
| 20260510041721 | 12 | 124 | 0.0 | 0.0 | 0.00 | 0.00 | 0.00 | 93 | 1011.0 |
| 20260510041218 | 13 | 124 | 0.0 | 0.0 | 0.00 | 0.00 | 0.00 | 92 | 1011.1 |
| 20260510040715 | 13 | 124 | 0.0 | 0.0 | 0.00 | 0.00 | 0.00 | 92 | 1011.1 |
| 20260510040212 | 13 | 124 | 0.0 | 0.0 | 0.00 | 0.00 | 0.00 | 92 | 1011.0 |
| 20260510035707 | 13 | 124 | 0.0 | 0.0 | 0.00 | 0.03 | 0.03 | 91 | 1010.9 |
| 20260510035204 | 13 | 124 | 0.0 | 0.0 | 0.00 | 0.03 | 0.03 | 91 | 1011.0 |
| 20260510034659 | 13 | 124 | 0.0 | 0.0 | 0.00 | 0.03 | 0.03 | 91 | 1010.8 |
| 20260510034157 | 13 | 124 | 0.0 | 0.0 | 0.00 | 0.03 | 0.03 | 90 | 1011.0 |
| 20260510033653 | 13 | 124 | 0.0 | 0.0 | 0.00 | 0.03 | 0.03 | 89 | 1010.8 |
| 20260510033151 | 13 | 124 | 0.0 | 0.0 | 0.00 | 0.03 | 0.03 | 89 | 1010.7 |
| 20260510032647 | 13 | 124 | 0.0 | 0.0 | 0.00 | 0.03 | 0.03 | 88 | 1010.8 |
| 20260510032143 | 14 | 124 | 0.0 | 0.0 | 0.00 | 0.03 | 0.03 | 86 | 1010.8 |
| 20260510031637 | 14 | 124 | 0.0 | 0.0 | 0.00 | 0.03 | 0.03 | 86 | 1010.8 |
| 20260510031134 | 14 | 124 | 0.0 | 0.0 | 0.00 | 0.03 | 0.03 | 85 | 1010.7 |
| 20260510030629 | 15 | 124 | 0.0 | 0.0 | 0.00 | 0.03 | 0.03 | 85 | 1010.8 |
| 20260510030127 | 15 | 124 | 0.0 | 0.0 | 0.00 | 0.03 | 0.03 | 84 | 1010.8 |
| 20260510025624 | 15 | 124 | 0.0 | 0.0 | 0.00 | 0.03 | 0.03 | 84 | 1010.5 |
| 20260510025121 | 15 | 124 | 0.0 | 0.0 | 0.00 | 0.03 | 0.03 | 83 | 1010.8 |
| 20260510024618 | 15 | 124 | 0.0 | 0.0 | 0.00 | 0.03 | 0.03 | 83 | 1010.7 |
| 20260510024114 | 15 | 124 | 0.0 | 0.0 | 0.00 | 0.03 | 0.03 | 82 | 1010.8 |
| 20260510023610 | 15 | 124 | 0.0 | 0.0 | 0.00 | 0.03 | 0.03 | 82 | 1010.6 |
| 20260510023108 | 16 | 124 | 0.0 | 0.0 | 0.00 | 0.03 | 0.03 | 81 | 1010.8 |
| 20260510022607 | 16 | 124 | 0.0 | 0.0 | 0.00 | 0.03 | 0.03 | 81 | 1010.7 |
| 20260510022102 | 16 | 124 | 0.0 | 0.0 | 0.00 | 0.03 | 0.03 | 80 | 1010.5 |
| 20260510021558 | 16 | 124 | 0.0 | 0.0 | 0.00 | 0.03 | 0.03 | 80 | 1010.7 |
| 20260510021056 | 16 | 124 | 0.0 | 0.0 | 0.00 | 0.03 | 0.03 | 80 | 1010.5 |
| 20260510020550 | 16 | 124 | 0.0 | 0.0 | 0.00 | 0.03 | 0.03 | 80 | 1010.2 |
| 20260510020046 | 16 | 124 | 0.0 | 0.0 | 0.00 | 0.03 | 0.03 | 79 | 1010.4 |
| 20260510015542 | 16 | 124 | 0.0 | 0.0 | 0.00 | 0.03 | 0.03 | 79 | 1010.5 |
| 20260510015038 | 16 | 124 | 0.0 | 0.0 | 0.00 | 0.03 | 0.03 | 78 | 1010.3 |
| 20260510014535 | 16 | 124 | 0.0 | 0.0 | 0.00 | 0.03 | 0.03 | 77 | 1010.2 |
| 20260510014032 | 17 | 124 | 0.0 | 0.0 | 0.00 | 0.03 | 0.03 | 76 | 1010.3 |
| 20260510013526 | 17 | 124 | 0.0 | 0.0 | 0.00 | 0.03 | 0.03 | 75 | 1010.3 |
| 20260510013022 | 17 | 124 | 0.0 | 0.0 | 0.00 | 0.03 | 0.03 | 73 | 1010.2 |
| 20260510012516 | 17 | 124 | 0.0 | 0.0 | 0.00 | 0.03 | 0.03 | 72 | 1010.0 |
| 20260510012013 | 18 | 124 | 0.0 | 0.0 | 0.00 | 0.03 | 0.03 | 72 | 1009.8 |
| 20260510011507 | 18 | 124 | 0.0 | 0.0 | 0.00 | 0.03 | 0.03 | 72 | 1009.8 |
| 20260510011003 | 18 | 124 | 0.0 | 0.0 | 0.00 | 0.03 | 0.03 | 72 | 1009.9 |
| 20260510010500 | 18 | 124 | 0.0 | 0.0 | 0.00 | 0.03 | 0.03 | 72 | 1009.8 |
| 20260510005957 | 18 | 124 | 0.0 | 0.0 | 0.00 | 0.03 | 0.03 | 73 | 1010.0 |
| 20260510005453 | 18 | 124 | 0.0 | 0.0 | 0.00 | 0.03 | 0.03 | 73 | 1009.9 |
| 20260510004951 | 17 | 124 | 0.0 | 1.6 | 0.00 | 0.03 | 0.03 | 74 | 1010.0 |
| 20260510004448 | 17 | 124 | 0.0 | 0.0 | 0.00 | 0.03 | 0.03 | 75 | 1009.7 |
| 20260510003946 | 17 | 124 | 0.0 | 0.0 | 0.00 | 0.03 | 0.03 | 75 | 1009.5 |
| 20260510003442 | 18 | 124 | 0.0 | 0.0 | 0.00 | 0.03 | 0.03 | 74 | 1009.8 |
| 20260510002943 | 18 | 124 | 0.0 | 0.0 | 0.00 | 0.03 | 0.03 | 73 | 1009.6 |
| 20260510002439 | 18 | 124 | 0.0 | 1.6 | 0.00 | 0.03 | 0.03 | 73 | 1009.6 |
| 20260510001935 | 18 | 124 | 0.0 | 0.0 | 0.00 | 0.03 | 0.03 | 73 | 1009.7 |
| 20260510001433 | 18 | 124 | 0.0 | 0.0 | 0.00 | 0.03 | 0.03 | 72 | 1009.2 |
| 20260510000931 | 19 | 124 | 0.0 | 0.0 | 0.00 | 0.03 | 0.03 | 71 | 1009.6 |
| 20260510000426 | 19 | 123 | 0.0 | 0.0 | 0.00 | 0.03 | 0.03 | 70 | 1009.4 |
| 20260509235923 | 19 | 121 | 0.0 | 0.0 | 0.00 | 0.03 | 0.03 | 69 | 1009.3 |
| 20260509235420 | 20 | 120 | 0.0 | 0.0 | 0.00 | 0.03 | 0.03 | 68 | 1009.2 |
| 20260509234916 | 20 | 118 | 0.0 | 1.6 | 0.00 | 0.03 | 0.03 | 68 | 1009.3 |
| 20260509234413 | 20 | 117 | 0.0 | 0.0 | 0.00 | 0.03 | 0.03 | 67 | 1009.3 |
| 20260509233911 | 20 | 117 | 0.0 | 0.0 | 0.00 | 0.03 | 0.03 | 67 | 1009.2 |
| 20260509233409 | 21 | 116 | 0.0 | 0.0 | 0.00 | 0.03 | 0.03 | 66 | 1009.0 |
| 20260509232904 | 21 | 117 | 1.6 | 1.6 | 0.00 | 0.03 | 0.03 | 66 | 1009.2 |
| 20260509232403 | 21 | 116 | 4.8 | 4.8 | 0.00 | 0.03 | 0.03 | 66 | 1009.3 |
| 20260509231858 | 21 | 115 | 1.6 | 1.6 | 0.00 | 0.03 | 0.03 | 67 | 1009.0 |
| 20260509231355 | 21 | 114 | 0.0 | 1.6 | 0.00 | 0.03 | 0.03 | 68 | 1009.0 |
| 20260509230853 | 22 | 116 | 0.0 | 0.0 | 0.00 | 0.03 | 0.03 | 66 | 1008.9 |
| 20260509230350 | 22 | 115 | 0.0 | 0.0 | 0.00 | 0.03 | 0.03 | 61 | 1009.0 |
| 20260509225845 | 23 | 114 | 3.2 | 3.2 | 0.00 | 0.03 | 0.03 | 56 | 1009.0 |
| 20260509225342 | 23 | 115 | 0.0 | 0.0 | 0.00 | 0.03 | 0.03 | 55 | 1009.1 |
| 20260509224838 | 23 | 115 | 3.2 | 3.2 | 0.00 | 0.03 | 0.03 | 54 | 1009.0 |
| 20260509224334 | 23 | 112 | 1.6 | 1.6 | 0.00 | 0.03 | 0.03 | 57 | 1008.9 |
| 20260509223831 | 22 | 111 | 1.6 | 1.6 | 0.00 | 0.03 | 0.03 | 58 | 1008.8 |
| 20260509223328 | 22 | 111 | 0.0 | 1.6 | 0.00 | 0.03 | 0.03 | 59 | 1008.9 |
| 20260509222825 | 23 | 111 | 0.0 | 0.0 | 0.00 | 0.03 | 0.03 | 56 | 1009.3 |
| 20260509222320 | 23 | 112 | 0.0 | 0.0 | 0.00 | 0.03 | 0.03 | 55 | 1009.2 |
| 20260509221816 | 23 | 109 | 0.0 | 0.0 | 0.00 | 0.03 | 0.03 | 58 | 1009.1 |
| 20260509221313 | 23 | 113 | 6.4 | 8.0 | 0.00 | 0.03 | 0.03 | 56 | 1008.9 |
| 20260509220808 | 24 | 117 | 0.0 | 0.0 | 0.00 | 0.03 | 0.03 | 54 | 1009.2 |
| 20260509220305 | 23 | 122 | 0.0 | 0.0 | 0.00 | 0.03 | 0.03 | 54 | 1009.0 |
| 20260509215800 | 23 | 120 | 4.8 | 4.8 | 0.00 | 0.03 | 0.03 | 56 | 1009.1 |
| 20260509215257 | 23 | 112 | 4.8 | 8.0 | 0.00 | 0.03 | 0.03 | 55 | 1009.0 |
| 20260509214754 | 23 | 104 | 3.2 | 4.8 | 0.00 | 0.03 | 0.03 | 56 | 1009.1 |
| 20260509214251 | 23 | 106 | 3.2 | 3.2 | 0.00 | 0.03 | 0.03 | 55 | 1008.8 |
| 20260509213748 | 23 | 104 | 8.0 | 9.7 | 0.00 | 0.03 | 0.03 | 54 | 1009.0 |
| 20260509213243 | 23 | 110 | 3.2 | 3.2 | 0.00 | 0.03 | 0.03 | 55 | 1009.1 |
| 20260509212741 | 23 | 110 | 0.0 | 1.6 | 0.00 | 0.03 | 0.03 | 53 | 1009.1 |
| 20260509212239 | 24 | 120 | 4.8 | 8.0 | 0.00 | 0.03 | 0.03 | 54 | 1009.1 |
| 20260509211734 | 23 | 123 | 0.0 | 0.0 | 0.00 | 0.03 | 0.03 | 55 | 1008.9 |
| 20260509211230 | 24 | 125 | 3.2 | 8.0 | 0.00 | 0.03 | 0.03 | 54 | 1009.0 |
| 20260509210727 | 25 | 119 | 0.0 | 1.6 | 0.00 | 0.03 | 0.03 | 54 | 1008.9 |
| 20260509210225 | 24 | 123 | 0.0 | 1.6 | 0.00 | 0.03 | 0.03 | 54 | 1008.9 |
| 20260509205724 | 24 | 123 | 3.2 | 8.0 | 0.00 | 0.03 | 0.03 | 54 | 1008.7 |
| 20260509205224 | 24 | 121 | 1.6 | 1.6 | 0.00 | 0.03 | 0.03 | 55 | 1008.9 |
| 20260509204720 | 24 | 119 | 8.0 | 11.3 | 0.00 | 0.03 | 0.03 | 54 | 1008.6 |
| 20260509204217 | 23 | 117 | 1.6 | 1.6 | 0.00 | 0.03 | 0.03 | 58 | 1008.9 |
| 20260509203713 | 23 | 115 | 0.0 | 0.0 | 0.00 | 0.03 | 0.03 | 56 | 1009.0 |
| 20260509203211 | 22 | 116 | 3.2 | 4.8 | 0.00 | 0.03 | 0.03 | 57 | 1008.9 |
| 20260509202706 | 23 | 115 | 4.8 | 8.0 | 0.00 | 0.03 | 0.03 | 58 | 1009.0 |
| 20260509202201 | 23 | 115 | 3.2 | 3.2 | 0.00 | 0.03 | 0.03 | 57 | 1008.9 |
| 20260509201657 | 22 | 115 | 0.0 | 1.6 | 0.00 | 0.03 | 0.03 | 61 | 1009.1 |
| 20260509201154 | 22 | 115 | 0.0 | 0.0 | 0.00 | 0.03 | 0.03 | 58 | 1009.2 |
| 20260509200650 | 23 | 116 | 0.0 | 1.6 | 0.00 | 0.03 | 0.03 | 59 | 1009.5 |
| 20260509200145 | 22 | 117 | 0.0 | 0.0 | 0.00 | 0.03 | 0.03 | 59 | 1009.3 |
| 20260509195641 | 22 | 116 | 1.6 | 1.6 | 0.00 | 0.03 | 0.03 | 62 | 1009.5 |
| 20260509195137 | 21 | 117 | 0.0 | 0.0 | 0.00 | 0.03 | 0.03 | 62 | 1009.6 |
| 20260509194631 | 21 | 116 | 3.2 | 3.2 | 0.00 | 0.03 | 0.03 | 63 | 1009.6 |
| 20260509194128 | 21 | 117 | 1.6 | 1.6 | 0.00 | 0.03 | 0.03 | 60 | 1009.6 |
| 20260509193624 | 21 | 118 | 4.8 | 4.8 | 0.00 | 0.03 | 0.03 | 60 | 1009.8 |
| 20260509193120 | 22 | 120 | 0.0 | 0.0 | 0.00 | 0.03 | 0.03 | 59 | 1009.7 |
| 20260509192617 | 21 | 121 | 3.2 | 3.2 | 0.00 | 0.03 | 0.03 | 61 | 1009.7 |
| 20260509192112 | 21 | 123 | 4.8 | 8.0 | 0.00 | 0.03 | 0.03 | 62 | 1009.8 |
| 20260509191606 | 21 | 124 | 0.0 | 1.6 | 0.00 | 0.03 | 0.03 | 62 | 1009.6 |
| 20260509191103 | 21 | 124 | 4.8 | 4.8 | 0.00 | 0.03 | 0.03 | 62 | 1009.7 |
| 20260509190600 | 21 | 124 | 1.6 | 3.2 | 0.00 | 0.03 | 0.03 | 62 | 1009.8 |
| 20260509190057 | 21 | 124 | 0.0 | 1.6 | 0.00 | 0.03 | 0.03 | 62 | 1010.0 |
| 20260509185555 | 21 | 124 | 0.0 | 0.0 | 0.00 | 0.03 | 0.03 | 67 | 1010.1 |
| 20260509185050 | 20 | 124 | 1.6 | 1.6 | 0.00 | 0.03 | 0.03 | 66 | 1010.5 |
| 20260509184549 | 20 | 124 | 0.0 | 0.0 | 0.00 | 0.03 | 0.03 | 68 | 1010.4 |
| 20260509184045 | 19 | 122 | 0.0 | 0.0 | 0.00 | 0.03 | 0.03 | 71 | 1010.6 |
| 20260509183540 | 18 | 118 | 0.0 | 0.0 | 0.00 | 0.03 | 0.03 | 74 | 1010.6 |
| 20260509183037 | 18 | 117 | 0.0 | 0.0 | 0.13 | 0.03 | 0.03 | 72 | 1010.6 |
| 20260509182533 | 20 | 116 | 0.0 | 1.6 | 0.13 | 0.03 | 0.03 | 66 | 1010.6 |
| 20260509182031 | 20 | 116 | 0.0 | 0.0 | 0.00 | 0.00 | 0.00 | 62 | 1010.6 |
| 20260509181529 | 20 | 116 | 4.8 | 4.8 | 0.00 | 0.00 | 0.00 | 60 | 1010.4 |
| 20260509181026 | 21 | 116 | 1.6 | 1.6 | 0.00 | 0.00 | 0.00 | 61 | 1010.7 |
| 20260509180521 | 21 | 115 | 3.2 | 3.2 | 0.00 | 0.00 | 0.00 | 60 | 1010.6 |
| 20260509180019 | 21 | 116 | 0.0 | 0.0 | 0.00 | 0.00 | 0.00 | 60 | 1010.9 |
| 20260509175514 | 21 | 117 | 6.4 | 8.0 | 0.00 | 0.00 | 0.00 | 59 | 1010.8 |
| 20260509175011 | 21 | 116 | 8.0 | 12.9 | 0.00 | 0.00 | 0.00 | 58 | 1010.9 |
| 20260509174508 | 21 | 117 | 4.8 | 8.0 | 0.00 | 0.00 | 0.00 | 60 | 1011.0 |
| 20260509174002 | 21 | 117 | 0.0 | 1.6 | 0.00 | 0.00 | 0.00 | 60 | 1011.0 |
| 20260509173457 | 21 | 119 | 3.2 | 3.2 | 0.00 | 0.00 | 0.00 | 60 | 1010.8 |
| 20260509172954 | 21 | 119 | 1.6 | 3.2 | 0.00 | 0.00 | 0.00 | 60 | 1011.0 |
| 20260509172451 | 21 | 117 | 6.4 | 9.7 | 0.00 | 0.00 | 0.00 | 60 | 1010.9 |
| 20260509171946 | 21 | 118 | 3.2 | 4.8 | 0.00 | 0.00 | 0.00 | 60 | 1011.0 |
| 20260509171442 | 21 | 118 | 6.4 | 9.7 | 0.00 | 0.00 | 0.00 | 60 | 1010.8 |
| 20260509170938 | 21 | 118 | 0.0 | 1.6 | 0.00 | 0.00 | 0.00 | 61 | 1011.0 |
| 20260509170434 | 21 | 119 | 1.6 | 1.6 | 0.00 | 0.00 | 0.00 | 60 | 1010.9 |
| 20260509165930 | 21 | 123 | 1.6 | 3.2 | 0.00 | 0.00 | 0.00 | 59 | 1011.0 |
| 20260509165424 | 21 | 129 | 6.4 | 8.0 | 0.00 | 0.00 | 0.00 | 59 | 1011.1 |
| 20260509164920 | 21 | 128 | 4.8 | 4.8 | 0.00 | 0.00 | 0.00 | 59 | 1010.9 |